Last 24 Hours

Thomas Mountain

10 Minute Data | America/Los_Angeles
as of 9/2/26 12:20 AM PDT
Date & Time Temp (°F) Dew Pt (°F) RH (%) Wind Spd (mph) Wind Dir (°) Wind Gust (mph) Wind Gst Dir (°) Daily Max Temp (°F) Daily Min Temp (°F)
9/2/26 - 0020 58.3 28.0 31 7.1 WSW | 254 11.0 WSW | 249 76.1 58.2
9/2/26 - 0010 59.2 28.6 31 6.0 WSW | 242 7.9 WSW | 238 76.1 58.3
9/2/26 - 0000 61.3 26.8 27 6.5 WSW | 258 12.4 W | 278 76.1 60.4
9/1/26 - 2350 61.3 26.1 26 6.7 W | 265 14.0 WNW | 284 76.1 60.8
9/1/26 - 2340 61.4 26.3 26 5.5 WSW | 257 11.4 W | 265 76.1 60.8
9/1/26 - 2330 61.6 26.3 26 6.8 W | 273 12.6 W | 276 76.1 60.8
9/1/26 - 2320 61.5 28.3 28 5.4 WSW | 248 13.2 WSW | 245 76.1 60.8
9/1/26 - 2310 62.3 27.1 26 7.9 W | 261 15.5 W | 272 76.1 60.9
9/1/26 - 2300 62.5 27.5 26 8.5 W | 263 16.2 WNW | 282 76.1 60.9
9/1/26 - 2250 62.4 30.2 30 7.6 W | 262 14.3 W | 278 76.1 60.9
9/1/26 - 2240 63.7 31.2 29 8.5 W | 266 19.4 W | 277 76.1 60.9
9/1/26 - 2230 63.6 32.0 30 9.7 W | 278 17.0 WNW | 285 76.1 60.9
9/1/26 - 2220 62.9 33.0 33 6.9 W | 278 13.9 W | 275 76.1 60.9
9/1/26 - 2210 63.5 32.6 31 7.5 W | 270 18.0 W | 260 76.1 60.9
9/1/26 - 2200 62.0 32.5 33 9.0 W | 262 18.1 W | 260 76.1 60.9
9/1/26 - 2150 61.4 33.1 34 7.5 WSW | 254 15.3 WSW | 256 76.1 60.9
9/1/26 - 2140 62.2 33.1 33 8.5 WSW | 250 16.2 WSW | 240 76.1 61.1
9/1/26 - 2130 64.6 32.8 30 12.0 W | 273 17.9 WNW | 282 76.1 62.7
9/1/26 - 2120 64.6 32.2 30 10.2 W | 274 19.1 W | 274 76.1 62.7
9/1/26 - 2110 64.3 33.1 31 9.3 WNW | 283 16.3 WNW | 287 76.1 62.7
9/1/26 - 2100 63.6 35.0 34 8.6 W | 280 16.2 W | 281 76.1 62.7
9/1/26 - 2050 62.9 35.6 36 5.5 W | 276 11.0 WNW | 286 76.1 62.7
9/1/26 - 2040 62.9 34.8 35 6.0 W | 281 11.8 W | 278 76.1 62.7
9/1/26 - 2030 63.0 34.3 34 5.1 WNW | 295 9.4 WNW | 285 76.1 62.7
9/1/26 - 2020 63.3 31.8 31 7.9 WNW | 293 18.1 WNW | 289 76.1 62.8
9/1/26 - 2010 63.6 28.6 27 10.3 WNW | 294 17.7 W | 280 76.1 62.8
9/1/26 - 2000 63.8 31.5 30 10.1 WNW | 292 15.4 WNW | 296 76.1 62.8
9/1/26 - 1950 64.1 32.9 31 10.1 WNW | 288 18.1 WNW | 282 76.1 62.8
9/1/26 - 1940 64.3 33.8 32 11.5 W | 278 18.8 WNW | 282 76.1 62.8
9/1/26 - 1930 64.4 33.8 32 10.1 W | 276 14.8 WNW | 285 76.1 62.8
9/1/26 - 1920 64.9 34.0 32 11.4 W | 276 17.5 W | 268 76.1 62.8
9/1/26 - 1910 65.6 34.8 32 10.6 W | 270 16.2 WSW | 256 76.1 62.8
9/1/26 - 1900 66.2 35.3 32 11.3 WSW | 252 17.4 WSW | 257 76.1 62.8
9/1/26 - 1850 67.0 35.8 32 14.3 WSW | 246 21.8 WSW | 241 76.1 62.8
9/1/26 - 1840 67.9 35.3 30 15.1 WSW | 244 21.0 WSW | 242 76.1 62.8
9/1/26 - 1830 68.7 34.0 28 15.4 WSW | 245 21.7 WSW | 239 76.1 62.8
9/1/26 - 1820 69.0 34.5 28 14.5 WSW | 255 21.6 W | 265 76.1 62.8
9/1/26 - 1810 69.5 35.4 29 14.8 WSW | 254 24.9 W | 262 76.1 62.8
9/1/26 - 1800 70.1 35.4 28 13.4 WSW | 247 21.0 WSW | 258 76.1 62.8
9/1/26 - 1750 70.4 35.6 28 14.4 WSW | 247 21.5 WSW | 250 76.1 62.8
9/1/26 - 1740 71.2 34.5 26 15.6 WSW | 247 22.6 WSW | 244 76.1 62.8
9/1/26 - 1730 71.4 34.5 26 17.3 WSW | 243 23.2 WSW | 242 76.1 62.8
9/1/26 - 1720 72.1 34.9 26 14.9 WSW | 243 22.6 SW | 234 76.1 62.8
9/1/26 - 1710 72.1 37.1 28 16.8 WSW | 242 24.8 WSW | 245 76.1 62.8
9/1/26 - 1700 72.2 38.3 29 15.5 WSW | 241 24.5 SW | 234 76.1 62.8
9/1/26 - 1650 72.4 38.4 29 16.2 WSW | 248 23.1 W | 262 76.1 62.8
9/1/26 - 1640 73.1 37.8 28 18.0 WSW | 242 25.9 WSW | 242 76.1 62.8
9/1/26 - 1630 73.4 37.3 27 14.9 WSW | 243 24.5 WSW | 251 76.1 62.8
9/1/26 - 1620 73.3 37.2 27 15.2 WSW | 247 23.9 WSW | 256 76.1 62.8
9/1/26 - 1610 73.0 37.8 28 14.9 WSW | 242 22.4 WSW | 246 76.1 62.8
9/1/26 - 1600 73.4 37.3 27 16.9 WSW | 240 24.1 WSW | 247 76.1 62.8
9/1/26 - 1550 74.6 37.2 26 14.6 SW | 236 23.5 WSW | 242 76.1 62.8
9/1/26 - 1540 73.2 36.8 27 15.2 WSW | 240 24.6 WSW | 244 76.1 62.8
9/1/26 - 1530 74.1 36.4 25 15.0 SW | 236 24.1 WSW | 239 76.1 62.8
9/1/26 - 1520 74.9 36.1 24 15.6 WSW | 239 24.7 W | 259 76.1 62.8
9/1/26 - 1510 74.3 35.9 25 14.9 WSW | 243 22.8 WSW | 251 76.1 62.8
9/1/26 - 1500 75.0 36.6 25 13.9 WSW | 238 20.8 WSW | 250 76.1 62.8
9/1/26 - 1450 74.4 36.7 25 13.8 WSW | 240 24.1 WSW | 256 76.1 62.8
9/1/26 - 1440 74.0 37.1 26 14.2 WSW | 245 22.4 WSW | 238 76.1 62.8
9/1/26 - 1430 74.1 36.5 25 15.7 WSW | 242 25.4 WSW | 250 76.1 62.8
9/1/26 - 1420 73.6 36.7 26 16.8 SW | 236 24.3 SW | 219 76.1 62.8
9/1/26 - 1410 74.4 38.3 27 14.4 WSW | 242 24.1 WSW | 249 76.1 62.8
9/1/26 - 1400 73.9 38.4 28 14.8 WSW | 244 23.4 WSW | 247 75.2 62.8
9/1/26 - 1350 73.9 37.3 26 15.8 WSW | 238 24.5 WSW | 237 75.2 62.8
9/1/26 - 1340 73.6 37.9 27 15.7 WSW | 250 26.8 SW | 236 75.2 62.8
9/1/26 - 1330 74.3 37.6 26 16.1 WSW | 241 23.9 WSW | 255 75.2 62.8
9/1/26 - 1320 73.8 38.7 28 16.7 WSW | 240 26.7 SW | 221 75.2 62.8
9/1/26 - 1310 74.0 39.0 28 16.5 SW | 232 25.9 SW | 224 75.2 62.8
9/1/26 - 1300 73.2 39.3 29 16.0 SW | 228 24.6 SW | 226 74.3 62.8
9/1/26 - 1250 72.0 39.6 31 15.9 WSW | 242 27.1 WSW | 245 74.3 62.8
9/1/26 - 1240 72.7 39.7 30 15.6 WSW | 242 23.8 WSW | 244 74.3 62.8
9/1/26 - 1230 72.7 39.9 30 14.8 SW | 235 25.4 SW | 228 74.3 62.8
9/1/26 - 1220 72.3 39.9 31 16.8 WSW | 237 26.3 SW | 229 73.6 62.8
9/1/26 - 1210 72.3 38.9 30 14.6 SW | 234 26.6 WSW | 252 73.6 62.8
9/1/26 - 1200 71.8 39.3 31 16.6 WSW | 241 24.9 WSW | 239 73.6 62.8
9/1/26 - 1150 71.8 38.4 30 16.8 WSW | 240 24.9 WSW | 251 73.6 62.8
9/1/26 - 1140 72.0 38.0 29 15.3 WSW | 246 25.7 WSW | 252 73.6 62.8
9/1/26 - 1130 71.7 38.2 30 15.0 WSW | 242 25.7 SW | 236 73.1 62.8
9/1/26 - 1120 71.9 37.7 29 16.2 WSW | 242 23.4 WSW | 249 73.1 62.8
9/1/26 - 1110 71.7 37.7 29 15.9 WSW | 239 22.6 WSW | 251 73.1 62.8
9/1/26 - 1100 71.5 36.7 28 15.7 WSW | 240 22.9 WSW | 242 73.1 62.8
9/1/26 - 1050 71.3 36.6 28 14.7 WSW | 238 21.8 WSW | 255 73.1 62.8
9/1/26 - 1040 71.2 34.7 26 15.6 WSW | 243 23.7 WSW | 243 73.1 62.8
9/1/26 - 1030 71.7 33.3 24 12.4 SW | 234 24.2 WSW | 237 73.0 62.8
9/1/26 - 1020 69.8 32.4 25 11.0 WSW | 256 18.7 WSW | 244 70.6 62.8
9/1/26 - 1010 69.6 32.6 25 11.6 WSW | 250 21.1 SW | 234 70.0 62.8
9/1/26 - 1000 68.9 32.2 26 12.4 WSW | 248 20.0 WSW | 257 69.7 62.8
9/1/26 - 0950 68.8 29.8 23 12.8 WSW | 249 19.1 W | 270 69.3 62.8
9/1/26 - 0940 68.8 26.9 21 12.1 WSW | 242 18.4 WSW | 241 69.3 62.8
9/1/26 - 0930 68.4 27.6 22 11.5 WSW | 242 18.8 W | 260 69.0 62.8
9/1/26 - 0920 67.9 28.5 23 11.0 WSW | 245 16.2 WSW | 249 68.4 62.8
9/1/26 - 0910 67.6 29.4 24 12.0 WSW | 246 19.5 WSW | 251 68.1 62.8
9/1/26 - 0900 67.4 26.4 21 11.7 WSW | 250 19.6 WSW | 254 67.9 62.8
9/1/26 - 0850 67.0 21.8 18 11.8 WSW | 244 18.6 WSW | 243 67.3 62.8
9/1/26 - 0840 66.8 21.2 17 10.6 WSW | 242 17.5 WSW | 250 67.2 62.8
9/1/26 - 0830 66.3 21.3 18 9.9 WSW | 247 15.5 WSW | 251 66.6 62.8
9/1/26 - 0820 65.8 21.6 18 8.9 WSW | 246 15.2 W | 270 66.1 62.8
9/1/26 - 0810 65.3 21.6 19 6.9 WSW | 248 13.3 SW | 234 65.7 62.8
9/1/26 - 0800 64.8 21.2 19 8.4 WSW | 249 13.1 WSW | 258 65.4 62.8
9/1/26 - 0750 64.7 21.0 19 7.9 WSW | 249 12.9 WSW | 252 65.4 62.8
9/1/26 - 0740 64.5 20.6 18 8.2 WSW | 252 14.0 W | 261 65.4 62.8
9/1/26 - 0730 64.4 20.5 18 8.0 WSW | 249 13.7 WSW | 252 65.4 62.8
9/1/26 - 0720 64.3 20.3 18 7.2 WSW | 246 14.0 WNW | 288 65.4 62.8
9/1/26 - 0710 64.1 20.3 18 6.9 W | 262 14.2 W | 260 65.4 62.8
9/1/26 - 0700 64.0 20.3 19 7.1 WSW | 256 11.2 WSW | 246 65.4 62.8
9/1/26 - 0650 64.0 20.2 18 7.9 WSW | 256 12.8 WSW | 250 65.4 62.8
9/1/26 - 0640 63.6 20.1 19 5.7 W | 259 9.4 W | 266 65.4 62.8
9/1/26 - 0630 63.4 20.1 19 5.6 W | 266 9.6 WSW | 258 65.4 62.8
9/1/26 - 0620 63.2 20.2 19 3.9 W | 260 7.5 WSW | 250 65.4 62.8
9/1/26 - 0610 63.4 20.4 19 4.7 W | 263 8.1 WNW | 286 65.4 62.8
9/1/26 - 0600 63.4 20.6 19 5.5 W | 270 9.3 WNW | 284 65.4 62.8
9/1/26 - 0550 63.5 20.7 19 5.8 W | 270 10.2 W | 273 65.4 62.8
9/1/26 - 0540 63.2 20.7 19 4.1 W | 269 7.7 WNW | 287 65.4 62.8
9/1/26 - 0530 63.2 21.0 20 5.1 W | 269 9.8 W | 279 65.4 62.8
9/1/26 - 0520 63.0 21.3 20 4.3 W | 268 8.5 W | 280 65.4 62.8
9/1/26 - 0510 63.1 21.6 20 4.4 W | 269 7.9 W | 267 65.4 62.8
9/1/26 - 0500 63.0 22.0 21 4.7 WNW | 283 9.0 WNW | 284 65.4 62.8
9/1/26 - 0450 63.1 22.2 21 5.0 WNW | 284 8.2 W | 276 65.4 62.8
9/1/26 - 0440 63.1 22.6 21 3.6 WNW | 286 6.3 WNW | 294 65.4 62.8
9/1/26 - 0430 63.4 23.1 21 3.0 WNW | 285 5.7 W | 271 65.4 63.2
9/1/26 - 0420 63.4 23.5 22 2.4 W | 278 4.4 W | 266 65.4 63.3
9/1/26 - 0410 63.6 23.5 21 2.2 W | 279 4.9 WNW | 296 65.4 63.4
9/1/26 - 0400 63.6 23.5 21 2.3 W | 264 3.8 WSW | 251 65.4 63.5
9/1/26 - 0350 63.8 23.4 21 2.2 W | 275 4.0 WSW | 255 65.4 63.5
9/1/26 - 0340 64.0 23.1 21 2.3 WSW | 256 4.7 WSW | 256 65.4 63.8
9/1/26 - 0330 64.0 22.9 21 3.0 W | 262 5.7 W | 270 65.4 63.8
9/1/26 - 0320 64.1 22.5 20 3.9 W | 259 6.2 WSW | 254 65.4 63.8
9/1/26 - 0310 64.4 21.5 19 4.6 WSW | 258 7.5 W | 278 65.4 63.8
9/1/26 - 0300 64.1 20.9 19 4.6 W | 269 7.5 W | 276 65.4 63.8
9/1/26 - 0250 64.0 20.4 19 4.6 WNW | 284 6.4 W | 270 65.4 63.8
9/1/26 - 0240 63.9 20.7 19 3.1 W | 281 6.1 WNW | 288 65.4 63.8
9/1/26 - 0230 63.9 21.3 19 2.0 W | 268 4.4 WSW | 255 65.4 63.8
9/1/26 - 0220 64.0 22.3 20 1.9 W | 272 3.6 W | 271 65.4 64.0
9/1/26 - 0210 64.6 22.4 20 2.2 WNW | 286 4.3 WSW | 255 65.4 64.2
9/1/26 - 0200 65.0 22.4 20 3.8 WSW | 247 5.3 WSW | 256 65.4 64.2
9/1/26 - 0150 64.9 22.3 20 3.5 W | 262 7.4 WNW | 296 65.4 64.2
9/1/26 - 0140 64.5 22.0 19 3.6 W | 271 7.5 W | 279 65.4 64.2
9/1/26 - 0130 64.6 22.3 20 5.2 W | 270 8.3 W | 268 65.4 64.5
9/1/26 - 0120 65.0 22.0 19 6.8 W | 259 10.2 WSW | 258 65.4 64.8
9/1/26 - 0110 65.2 22.0 19 7.8 W | 259 11.2 WSW | 252 65.4 65.0
9/1/26 - 0100 65.2 21.6 19 6.6 WSW | 257 10.7 W | 271 78.7 62.5
9/1/26 - 0050 65.3 21.4 18 7.2 WSW | 258 10.9 W | 266 78.7 62.5
9/1/26 - 0040 65.4 21.9 19 7.0 W | 267 11.0 W | 268 78.7 62.5
9/1/26 - 0030 65.3 22.5 19 6.4 W | 266 10.1 WNW | 286 78.7 62.5
9/1/26 - 0020 65.2 23.1 20 5.9 W | 263 8.6 W | 264 78.7 62.5
Max 75.0 39.9 36 18.0 - 27.1 - 78.7 65.0
Avg 67.1 29.8 25 10.0 - 16.4 - - -
Min 58.3 20.1 17 1.9 - 3.6 - 65.4 58.2